Magdeburg, Germany

3:27 PM CEST on August 01, 2014 (GMT +0200)
Deutschland, Magdeburger Börde (ISACHSEN171) Elev 167 ft | 52.15 °N, 11.63 °E | Change Station

Current weather conditions updated 1 minute ago

Clear
Clear
80.2 °F
Feels Like 81 °F
N
0.0
Wind Variable Wind from East

Today is forecast to be nearly the same temperature as yesterday. Showers and thunderstorms early tomorrow night.

Today
High -- | Low -- °F
--% Chance of Precip.
Yesterday
High -- | Low -- °F
Precip. -- in
5:34 AM 9:04 PM
Waxing Crescent, 26% visible
Pressure 29.89 in
Visibility -9999.0 miles
Clouds
Heat Index 81 °F
Dew Point 57 °F
Humidity 45%
Rainfall 0.00 in
Snow Depth Not available.
UV Not available.
Pollen Not available.
Air Quality Not available.
Flu Activity Not available.
METAR EDBC 011320Z 10008KT CAVOK 25/12 Q1012

More Conditions Fewer Conditions

Pressure 29.89 in
Visibility -9999.0 miles
Clouds
Heat Index 81 °F
Dew Point 57 °F
Humidity 45%
Rainfall 0.00 in
Snow Depth Not available.
UV Not available.
Pollen Not available.
Air Quality Not available.
Flu Activity Not available.
METAR EDBC 011320Z 10008KT CAVOK 25/12 Q1012

More Conditions Fewer Conditions

10-Day Weather Forecast

Almanac

Astronomy

Aug. 01, 2014 Rise Set
Actual Time 5:34 AM CEST 9:04 PM CEST
Civil Twilight 4:52 AM CEST 9:45 PM CEST
Nautical Twilight 3:56 AM CEST 10:41 PM CEST
Astronomical Twilight 2:33 AM CEST 12:02 AM CEST
Moon 11:28 AM CEST 10:51 PM CEST
Length of Visible Light 16h 52m
Length of Day
15h 29m
Tomorrow will be 3m 15s shorter.
Waxing Crescent, 26% of the Moon is Illuminated
Today
Waxing Crescent
Aug 3
First Quarter
Aug 10
Full
Aug 17
Last Quarter
Aug 25
New

Yesterday's Extremes

Country Highs Country Lows

Community

WunderPhotos

Upload Photos

1,739,556 photos uploaded!

Nearby

Snow Depth

Not available.

Earthquake Activity

City Distance Mag. Time & Date
No recent earthquake activity has been reported nearby.
Minimum magnitude displayed is 2.5.

Coastal Water Temperatures

Place Temperature
No Stations Reporting

Nearby Weather Stations

Station Location Temp. Heat Index Dew Point Humidity Wind Precip. Elev Updated Type
Deutschland, Magdeburger Börde, Magdeburg 80.2 °F 81 °F 57 °F 45% East  at  0.0 mph - / hr 167 ft 3:26 PM CEST Normal
Jerichower Land, Koerbelitz 81.3 °F 82 °F 59 °F 47% SSE  at  2.0 mph 0.00 in / hr 223 ft 3:13 PM CEST Normal
Schoenebeck / Elbe 87.1 °F 88 °F 62 °F 43% ENE  at  0.0 mph 0.00 in / hr 177 ft 2:30 PM CEST Normal
Biere, Magdeburg 77.5 °F 79 °F 62 °F 58% ESE  at  5.0 mph 0.00 in / hr 276 ft 3:00 PM CEST Normal
Oschersleben, Oschersleben (Bode) 83.3 °F 84 °F 61 °F 47% SSE  at  5.4 mph 0.00 in / hr 272 ft 3:25 PM CEST Normal
Löderburg 81.1 °F 80 °F 49 °F 33% South  at  8.3 mph 0.00 in / hr 223 ft 3:00 PM CEST Normal

Show More Stations Show Fewer Stations